Time;durP1;ratioP1;P1;durP2;ratioP2;P2;SDS_P1;SDS_P2;PMS_P1;PMS_P2;Temp;Humidity;BMP_temperature;BMP_pressure;BME280_temperature;BME280_humidity;BME280_pressure;Samples;Min_cycle;Max_cycle;Signal;HPM_P1;HPM_P2
2022/11/10 00:00:04;;;;;;;18.80;12.70;;;10.00;99.90;;;;;;5073985;28;20199;-83
2022/11/10 00:02:31;;;;;;;17.37;13.00;;;10.00;99.90;;;;;;5073500;28;20200;-82
2022/11/10 00:04:58;;;;;;;17.93;12.33;;;10.00;99.90;;;;;;5073489;28;20198;-81
2022/11/10 00:07:26;;;;;;;18.73;12.33;;;10.00;99.90;;;;;;5073868;28;20201;-83
2022/11/10 00:09:54;;;;;;;16.50;12.33;;;10.00;99.90;;;;;;5073923;28;20593;-80
2022/11/10 00:12:22;;;;;;;18.10;12.20;;;10.00;99.90;;;;;;5073889;28;20201;-80
2022/11/10 00:17:36;;;;;;;19.90;12.20;;;10.00;99.90;;;;;;5072711;28;20269;-83
2022/11/10 00:20:04;;;;;;;20.13;12.53;;;10.00;99.90;;;;;;5073081;28;20706;-81
2022/11/10 00:22:31;;;;;;;17.70;12.97;;;9.90;99.90;;;;;;5073503;28;20193;-81
2022/11/10 00:25:00;;;;;;;18.60;12.33;;;9.90;99.90;;;;;;5073561;28;20196;-80
2022/11/10 00:27:27;;;;;;;18.37;12.23;;;9.90;99.90;;;;;;5073331;28;20196;-82
2022/11/10 00:29:54;;;;;;;17.57;13.03;;;9.80;99.90;;;;;;5073250;28;20653;-83
2022/11/10 00:32:21;;;;;;;16.20;12.53;;;9.80;99.90;;;;;;5072924;28;20692;-80
2022/11/10 00:34:48;;;;;;;17.87;12.30;;;9.80;99.90;;;;;;5073131;28;20220;-80
2022/11/10 00:37:15;;;;;;;19.00;13.10;;;9.80;99.90;;;;;;5073184;28;20200;-83
2022/11/10 00:39:42;;;;;;;21.07;13.10;;;9.80;1.00;;;;;;5072766;28;20199;-80
2022/11/10 00:42:10;;;;;;;18.60;12.27;;;9.80;1.00;;;;;;5073128;28;20200;-80
2022/11/10 00:44:37;;;;;;;16.63;12.40;;;9.80;1.00;;;;;;5072680;28;20188;-80
2022/11/10 00:47:04;;;;;;;18.30;12.10;;;9.80;1.00;;;;;;5072804;28;20198;-83
2022/11/10 00:49:31;;;;;;;19.60;12.20;;;9.70;1.00;;;;;;5072970;28;20199;-81
2022/11/10 00:51:58;;;;;;;20.13;12.50;;;9.80;1.00;;;;;;5072918;28;20197;-80
2022/11/10 00:54:25;;;;;;;18.90;12.50;;;9.80;1.00;;;;;;5073002;28;20309;-81
2022/11/10 00:56:52;;;;;;;17.47;12.60;;;9.70;1.00;;;;;;5072798;28;20230;-82
2022/11/10 00:59:20;;;;;;;18.40;12.40;;;9.80;1.00;;;;;;5072537;28;20680;-83
2022/11/10 01:01:47;;;;;;;17.73;12.70;;;9.80;1.00;;;;;;5073023;28;20196;-82
2022/11/10 01:04:14;;;;;;;17.97;12.80;;;9.80;1.00;;;;;;5072268;28;20757;-80
2022/11/10 01:06:41;;;;;;;18.97;12.17;;;9.80;1.00;;;;;;5072755;28;20207;-80
2022/11/10 01:09:08;;;;;;;18.57;11.93;;;9.80;1.00;;;;;;5072733;28;20241;-83
2022/11/10 01:11:35;;;;;;;20.07;12.17;;;9.80;1.00;;;;;;5072493;28;20241;-82
2022/11/10 01:14:02;;;;;;;17.00;11.80;;;9.70;1.00;;;;;;5072038;28;20195;-80
2022/11/10 01:16:32;;;;;;;16.97;11.87;;;9.70;1.00;;;;;;5072643;28;20586;-80
2022/11/10 01:19:01;;;;;;;19.77;12.40;;;9.70;1.00;;;;;;5072352;28;20229;-81
2022/11/10 01:21:29;;;;;;;18.90;12.27;;;9.70;1.00;;;;;;5072624;28;20200;-81
2022/11/10 01:23:56;;;;;;;17.43;11.37;;;9.70;1.00;;;;;;5072507;28;20249;-82
2022/11/10 01:26:24;;;;;;;16.17;11.60;;;9.70;1.00;;;;;;5073112;28;20199;-80
2022/11/10 01:28:51;;;;;;;19.20;11.33;;;9.70;1.00;;;;;;5072641;28;20192;-84
2022/11/10 01:31:20;;;;;;;16.70;11.23;;;9.70;1.00;;;;;;5071869;28;20278;-80
2022/11/10 01:33:49;;;;;;;16.17;11.50;;;9.70;1.00;;;;;;5072236;28;20636;-81
2022/11/10 01:36:16;;;;;;;18.50;12.00;;;9.70;99.90;;;;;;5072092;28;20684;-82
2022/11/10 01:38:43;;;;;;;16.93;11.53;;;9.70;99.90;;;;;;5072075;28;20244;-83
2022/11/10 01:41:13;;;;;;;16.67;12.13;;;9.70;99.90;;;;;;5072472;28;20195;-83
2022/11/10 01:43:41;;;;;;;18.10;12.60;;;9.70;99.90;;;;;;5072103;28;20225;-80
2022/11/10 01:46:09;;;;;;;18.80;11.37;;;9.60;1.00;;;;;;5072350;28;20250;-80
2022/11/10 01:48:41;;;;;;;20.70;12.10;;;9.60;1.00;;;;;;5072347;28;20196;-81
2022/11/10 01:51:17;;;;;;;18.40;12.13;;;9.60;1.00;;;;;;5072024;28;20181;-81
2022/11/10 01:53:48;;;;;;;19.60;11.40;;;9.60;1.00;;;;;;5072058;28;20172;-82
2022/11/10 01:56:16;;;;;;;18.33;11.07;;;9.60;1.00;;;;;;5072356;28;20201;-81
2022/11/10 01:58:49;;;;;;;17.90;11.03;;;9.60;1.00;;;;;;5071926;28;20250;-82
2022/11/10 02:01:16;;;;;;;16.10;11.30;;;9.50;1.00;;;;;;5072286;28;20522;-84
2022/11/10 02:03:48;;;;;;;16.07;11.27;;;9.50;1.00;;;;;;5072164;28;20205;-81
2022/11/10 02:06:19;;;;;;;16.67;11.70;;;9.50;1.00;;;;;;5072176;28;20180;-84
2022/11/10 02:08:47;;;;;;;16.43;11.03;;;9.50;1.00;;;;;;5072096;28;20642;-83
2022/11/10 02:11:14;;;;;;;17.90;11.57;;;9.50;1.00;;;;;;5071679;28;20199;-80
2022/11/10 02:13:42;;;;;;;18.30;11.00;;;9.50;1.00;;;;;;5071799;28;20679;-82
2022/11/10 02:16:10;;;;;;;15.13;10.83;;;9.60;1.00;;;;;;5071559;28;20219;-81
2022/11/10 02:18:37;;;;;;;16.40;11.00;;;9.60;1.00;;;;;;5071808;28;20653;-82
2022/11/10 02:21:06;;;;;;;14.50;10.50;;;9.60;1.00;;;;;;5071791;28;20203;-81
2022/11/10 02:23:50;;;;;;;18.30;11.10;;;9.60;1.00;;;;;;5071478;28;20193;-82
2022/11/10 02:26:21;;;;;;;14.90;10.73;;;9.60;1.00;;;;;;5071997;28;20185;-80
2022/11/10 02:28:49;;;;;;;15.57;10.30;;;9.60;1.00;;;;;;5071661;28;20234;-81
2022/11/10 02:31:16;;;;;;;16.47;11.33;;;9.60;1.00;;;;;;5071631;28;20224;-82
2022/11/10 02:33:43;;;;;;;17.27;10.97;;;9.50;1.00;;;;;;5071712;28;20239;-80
2022/11/10 02:36:11;;;;;;;16.00;11.40;;;9.60;1.00;;;;;;5071769;28;20220;-81
2022/11/10 02:38:39;;;;;;;17.40;10.73;;;9.60;1.00;;;;;;5071567;28;20192;-79
2022/11/10 02:41:06;;;;;;;16.67;10.73;;;9.60;1.00;;;;;;5075026;28;20242;-81
2022/11/10 02:43:34;;;;;;;19.00;11.53;;;9.60;1.00;;;;;;5075050;28;20249;-83
2022/11/10 02:46:01;;;;;;;14.70;10.87;;;9.60;1.00;;;;;;5075090;28;20192;-82
2022/11/10 02:48:28;;;;;;;16.83;11.13;;;9.60;1.00;;;;;;5075354;28;20201;-81
2022/11/10 02:50:55;;;;;;;16.70;11.07;;;9.60;1.00;;;;;;5075255;28;20601;-83
2022/11/10 02:53:23;;;;;;;15.50;11.03;;;9.60;1.00;;;;;;5075306;28;20196;-80
2022/11/10 02:55:50;;;;;;;18.23;10.73;;;9.50;1.00;;;;;;5074773;28;20223;-81
2022/11/10 02:58:17;;;;;;;16.33;11.30;;;9.50;1.00;;;;;;5075195;28;20199;-81
2022/11/10 03:00:44;;;;;;;16.07;10.77;;;9.50;1.00;;;;;;5075128;28;20260;-81
2022/11/10 03:03:11;;;;;;;16.17;10.30;;;9.50;1.00;;;;;;5075074;28;20198;-80
2022/11/10 03:05:38;;;;;;;15.00;10.13;;;9.40;1.00;;;;;;5074670;28;20726;-82
2022/11/10 03:08:05;;;;;;;15.17;10.07;;;9.40;1.00;;;;;;5074641;28;20294;-81
2022/11/10 03:10:34;;;;;;;14.93;10.23;;;9.30;1.00;;;;;;5074679;28;20601;-84
2022/11/10 03:13:02;;;;;;;14.90;9.63;;;9.30;1.00;;;;;;5074721;28;20586;-81
2022/11/10 03:15:30;;;;;;;16.60;10.00;;;9.30;1.00;;;;;;5074570;28;20214;-81
2022/11/10 03:17:57;;;;;;;15.90;9.80;;;9.20;1.00;;;;;;5075119;28;20550;-83
2022/11/10 03:20:24;;;;;;;16.37;10.60;;;9.20;99.90;;;;;;5074348;28;20606;-80
2022/11/10 03:22:51;;;;;;;15.90;10.00;;;9.20;99.90;;;;;;5074729;28;20191;-79
2022/11/10 03:25:18;;;;;;;16.43;10.53;;;9.20;99.90;;;;;;5074401;28;20246;-80
2022/11/10 03:27:47;;;;;;;17.43;10.50;;;9.30;99.90;;;;;;5074327;28;20241;-80
2022/11/10 03:30:14;;;;;;;21.77;12.03;;;9.30;99.90;;;;;;5074538;28;20199;-81
2022/11/10 03:32:41;;;;;;;23.97;12.77;;;9.30;99.90;;;;;;5074089;28;20224;-83
2022/11/10 03:35:09;;;;;;;28.07;13.80;;;9.40;99.90;;;;;;5074105;28;20216;-81
2022/11/10 03:37:36;;;;;;;20.77;11.20;;;9.40;99.90;;;;;;5074081;28;20661;-83
2022/11/10 03:40:04;;;;;;;20.33;10.90;;;9.50;99.90;;;;;;5074309;28;20204;-80
2022/11/10 03:42:31;;;;;;;17.50;10.60;;;9.50;99.90;;;;;;5074258;28;20266;-81
2022/11/10 03:44:59;;;;;;;14.97;9.20;;;9.50;99.90;;;;;;5074525;28;20193;-81
2022/11/10 03:47:26;;;;;;;11.90;8.03;;;9.60;99.90;;;;;;5074397;28;20602;-81
2022/11/10 03:49:53;;;;;;;11.40;7.80;;;9.60;99.90;;;;;;5074263;28;20292;-83
2022/11/10 03:52:20;;;;;;;12.10;8.00;;;9.70;77.90;;;;;;5074175;28;20201;-83
2022/11/10 03:54:47;;;;;;;13.83;8.33;;;9.70;1.00;;;;;;5073703;28;20199;-81
2022/11/10 03:57:15;;;;;;;16.10;8.50;;;9.80;1.00;;;;;;5074096;28;20246;-80
2022/11/10 03:59:42;;;;;;;14.70;8.80;;;9.80;1.00;;;;;;5073437;28;20714;-81
2022/11/10 04:02:10;;;;;;;14.73;8.47;;;9.90;1.00;;;;;;5073980;28;20285;-80
2022/11/10 04:10:08;;;;;;;15.40;8.07;;;10.00;1.00;;;;;;5073078;28;20536;-80
2022/11/10 04:18:24;;;;;;;12.97;5.63;;;10.10;1.00;;;;;;5073365;28;20641;-80
2022/11/10 04:20:52;;;;;;;10.40;5.10;;;10.10;1.00;;;;;;5073227;28;20231;-80
2022/11/10 04:23:29;;;;;;;7.83;5.13;;;10.10;1.00;;;;;;5073435;28;20543;-83
2022/11/10 04:28:42;;;;;;;10.27;5.03;;;10.20;1.00;;;;;;5073192;28;20200;-81
2022/11/10 04:31:09;;;;;;;8.40;4.80;;;10.20;1.00;;;;;;5071941;28;20240;-83
2022/11/10 04:33:39;;;;;;;13.67;5.10;;;10.30;1.00;;;;;;5072870;28;20182;-79
2022/11/10 04:36:06;;;;;;;9.33;4.60;;;10.30;1.00;;;;;;5073192;28;20217;-79
2022/11/10 04:38:34;;;;;;;10.07;4.60;;;10.30;1.00;;;;;;5073176;28;20253;-80
2022/11/10 04:41:01;;;;;;;8.63;4.37;;;10.30;1.00;;;;;;5073164;28;20200;-80
2022/11/10 04:43:29;;;;;;;8.23;4.50;;;10.30;1.00;;;;;;5073310;28;20193;-81
2022/11/10 04:45:56;;;;;;;8.43;3.83;;;10.30;1.00;;;;;;5072876;28;20219;-81
2022/11/10 04:48:23;;;;;;;8.83;4.17;;;10.30;1.00;;;;;;5073057;28;20210;-81
2022/11/10 04:50:52;;;;;;;8.20;4.20;;;10.30;1.00;;;;;;5072409;28;20193;-80
2022/11/10 04:53:19;;;;;;;7.93;3.87;;;10.30;1.00;;;;;;5072465;28;20188;-81
2022/11/10 04:55:47;;;;;;;6.17;4.00;;;10.30;1.00;;;;;;5072036;28;20266;-80
2022/11/10 04:58:14;;;;;;;8.90;3.93;;;10.20;1.00;;;;;;5072784;28;20246;-80
2022/11/10 05:00:42;;;;;;;8.47;4.17;;;10.10;1.00;;;;;;5072876;28;20197;-84
2022/11/10 05:03:11;;;;;;;9.73;4.23;;;10.00;1.00;;;;;;5072385;28;20250;-81
2022/11/10 05:05:38;;;;;;;9.27;4.27;;;9.90;1.00;;;;;;5072852;28;20193;-81
2022/11/10 05:08:07;;;;;;;10.10;5.57;;;9.90;1.00;;;;;;5072775;28;20204;-81
2022/11/10 05:10:35;;;;;;;7.97;4.70;;;9.80;1.00;;;;;;5072749;28;20197;-81
2022/11/10 05:13:03;;;;;;;8.87;4.20;;;9.80;1.00;;;;;;5072663;28;20189;-80
2022/11/10 05:15:31;;;;;;;10.00;5.03;;;9.90;99.90;;;;;;5052670;28;20617;-81
2022/11/10 05:17:59;;;;;;;7.53;4.57;;;10.00;99.90;;;;;;5053011;28;20221;-82
2022/11/10 05:20:26;;;;;;;15.93;5.80;;;10.10;1.00;;;;;;5052454;28;20662;-81
2022/11/10 05:25:41;;;;;;;8.23;4.60;;;10.30;1.00;;;;;;5061282;28;20179;-80
2022/11/10 05:28:09;;;;;;;10.53;5.40;;;10.40;1.00;;;;;;5072729;28;20186;-82
2022/11/10 05:30:37;;;;;;;10.10;5.13;;;10.40;99.90;;;;;;5072147;28;20235;-81
2022/11/10 05:33:05;;;;;;;12.13;5.60;;;10.50;99.90;;;;;;5072081;28;20227;-81
2022/11/10 05:35:32;;;;;;;8.20;4.27;;;10.50;99.90;;;;;;5072417;28;20276;-81
2022/11/10 05:37:59;;;;;;;5.67;4.23;;;10.50;99.90;;;;;;5072409;28;20189;-81
2022/11/10 05:40:28;;;;;;;11.13;4.10;;;10.60;99.90;;;;;;5072508;28;20260;-82
2022/11/10 05:42:56;;;;;;;9.20;3.77;;;10.60;99.90;;;;;;5072239;28;20201;-79
2022/11/10 05:45:26;;;;;;;7.47;3.90;;;10.60;45.50;;;;;;5072020;28;20256;-82
2022/11/10 05:47:54;;;;;;;8.13;3.60;;;10.60;1.00;;;;;;5072599;28;20198;-83
2022/11/10 05:50:22;;;;;;;5.73;3.37;;;10.60;1.00;;;;;;5071879;28;20197;-81
2022/11/10 05:52:51;;;;;;;6.47;3.70;;;10.60;1.00;;;;;;5071973;28;20256;-82
2022/11/10 05:55:20;;;;;;;7.53;4.00;;;10.60;83.80;;;;;;5071970;28;20190;-81
2022/11/10 05:57:49;;;;;;;8.07;3.60;;;10.60;1.00;;;;;;5071803;28;20201;-79
2022/11/10 06:00:20;;;;;;;7.53;3.63;;;10.70;1.00;;;;;;5070195;28;20714;-80
2022/11/10 06:02:57;;;;;;;8.47;3.63;;;10.70;1.00;;;;;;5065458;28;20209;-81
2022/11/10 06:05:24;;;;;;;9.43;3.63;;;10.60;1.00;;;;;;5054107;28;20205;-83
2022/11/10 06:07:51;;;;;;;7.97;3.50;;;10.60;1.00;;;;;;5065148;28;20193;-82
2022/11/10 06:10:18;;;;;;;7.10;3.87;;;10.60;1.00;;;;;;5070272;28;20193;-81
2022/11/10 06:12:45;;;;;;;9.50;4.17;;;10.60;1.00;;;;;;5069546;28;20240;-79
2022/11/10 06:15:14;;;;;;;7.60;3.67;;;10.60;1.00;;;;;;5073387;28;20198;-80
2022/11/10 06:17:43;;;;;;;6.83;3.53;;;10.60;1.00;;;;;;5075770;28;20230;-81
2022/11/10 06:20:11;;;;;;;8.27;4.00;;;10.50;99.90;;;;;;5075539;28;20742;-80
2022/11/10 06:22:38;;;;;;;8.50;3.50;;;10.60;99.90;;;;;;5075823;28;20197;-79
2022/11/10 06:25:06;;;;;;;8.43;4.17;;;10.60;99.90;;;;;;5075659;28;20189;-80
2022/11/10 06:27:33;;;;;;;6.93;3.70;;;10.60;99.90;;;;;;5075728;28;20181;-81
2022/11/10 06:30:00;;;;;;;4.93;3.30;;;10.60;1.00;;;;;;5075925;28;20264;-81
2022/11/10 06:32:27;;;;;;;6.90;3.50;;;10.70;99.90;;;;;;5075401;28;20231;-81
2022/11/10 06:34:56;;;;;;;6.33;3.20;;;10.70;99.90;;;;;;5075221;28;20196;-80
2022/11/10 06:37:39;;;;;;;10.07;4.40;;;10.70;99.90;;;;;;5083020;28;20212;-86
2022/11/10 06:40:28;;;;;;;;;;;;;;;;;;;;;
2022/11/10 06:43:04;;;;;;;5.63;3.63;;;10.70;99.90;;;;;;5097211;28;20205;-85
2022/11/10 06:45:32;;;;;;;8.27;4.13;;;10.80;92.10;;;;;;5099215;28;20257;-85
2022/11/10 06:48:10;;;;;;;9.33;3.77;;;10.80;55.70;;;;;;5099225;28;20193;-84
2022/11/10 06:50:39;;;;;;;10.90;4.20;;;10.90;41.10;;;;;;5084761;28;20203;-81
2022/11/10 06:53:06;;;;;;;16.90;7.07;;;10.90;1.00;;;;;;5081933;28;20248;-79
2022/11/10 06:55:33;;;;;;;12.73;5.80;;;10.90;1.00;;;;;;5075434;28;20198;-82
2022/11/10 06:58:00;;;;;;;8.93;4.10;;;11.00;1.00;;;;;;5075473;28;20244;-80
2022/11/10 07:00:28;;;;;;;9.03;4.13;;;11.00;1.00;;;;;;5075093;28;20207;-79
2022/11/10 07:03:00;;;;;;;10.30;3.90;;;11.00;1.00;;;;;;5075154;28;20221;-80
2022/11/10 07:05:27;;;;;;;9.10;4.40;;;11.00;1.00;;;;;;5074756;28;20201;-80
2022/11/10 07:07:56;;;;;;;10.23;4.00;;;11.00;1.00;;;;;;5086506;28;20208;-87
2022/11/10 07:10:23;;;;;;;11.13;5.43;;;10.90;1.00;;;;;;5074594;28;20590;-85
2022/11/10 07:12:57;;;;;;;9.50;5.17;;;10.80;1.00;;;;;;5074696;28;20194;-88
2022/11/10 07:15:24;;;;;;;15.23;7.83;;;10.70;1.00;;;;;;5075056;28;21110;-87
2022/11/10 07:17:51;;;;;;;10.07;4.97;;;10.60;1.00;;;;;;5074783;28;20229;-85
2022/11/10 07:20:19;;;;;;;14.03;5.13;;;10.50;1.00;;;;;;5074785;28;20194;-85
2022/11/10 07:22:46;;;;;;;74.30;33.23;;;10.40;99.90;;;;;;5074915;28;20204;-84
2022/11/10 07:25:15;;;;;;;14.63;6.30;;;10.40;99.90;;;;;;5074346;28;20198;-87
2022/11/10 07:27:42;;;;;;;17.03;5.83;;;10.30;99.90;;;;;;5074322;28;20681;-89
2022/11/10 07:30:11;;;;;;;12.97;6.43;;;10.30;99.90;;;;;;5074758;28;20312;-86
2022/11/10 07:32:38;;;;;;;11.00;5.27;;;10.30;1.00;;;;;;5074480;28;20230;-85
2022/11/10 07:35:05;;;;;;;20.03;9.67;;;10.20;1.00;;;;;;5074914;28;20703;-84
2022/11/10 07:37:33;;;;;;;10.90;4.87;;;10.20;1.00;;;;;;5074424;28;20222;-83
2022/11/10 07:40:00;;;;;;;12.13;4.70;;;10.10;1.00;;;;;;5074454;28;20232;-87
2022/11/10 07:42:29;;;;;;;15.13;5.60;;;10.10;1.00;;;;;;5073962;28;20650;-85
2022/11/10 07:44:56;;;;;;;56.40;23.97;;;10.10;1.00;;;;;;5074499;28;20212;-87
2022/11/10 07:47:25;;;;;;;16.83;6.20;;;10.20;1.00;;;;;;5074144;28;20609;-85
2022/11/10 07:49:52;;;;;;;12.17;5.27;;;10.20;1.00;;;;;;5073889;28;20189;-84
2022/11/10 07:52:20;;;;;;;25.23;9.47;;;10.20;1.00;;;;;;5074346;28;20197;-85
2022/11/10 07:54:47;;;;;;;10.50;4.10;;;10.20;72.90;;;;;;5073767;28;20545;-88
2022/11/10 07:57:14;;;;;;;10.87;4.77;;;10.30;99.90;;;;;;5073839;28;20578;-84
2022/11/10 07:59:43;;;;;;;10.57;5.20;;;10.40;99.90;;;;;;5073658;28;20193;-86
2022/11/10 08:02:11;;;;;;;10.60;4.93;;;10.60;99.90;;;;;;5074077;28;20204;-84
2022/11/10 08:04:39;;;;;;;16.07;8.67;;;10.70;1.00;;;;;;5074033;28;20199;-84
2022/11/10 08:07:06;;;;;;;54.80;22.10;;;10.70;1.00;;;;;;5073936;28;20275;-85
2022/11/10 08:09:34;;;;;;;22.40;9.93;;;10.90;1.00;;;;;;5073701;28;20605;-89
2022/11/10 08:12:01;;;;;;;38.27;15.87;;;10.90;1.00;;;;;;5073514;28;20207;-83
2022/11/10 08:14:28;;;;;;;18.70;7.33;;;11.10;1.00;;;;;;5074067;28;20206;-85
2022/11/10 08:16:57;;;;;;;14.63;6.97;;;11.10;1.00;;;;;;5073267;28;20596;-84
2022/11/10 08:19:24;;;;;;;22.37;9.73;;;11.20;99.90;;;;;;5073369;28;20664;-86
2022/11/10 08:21:51;;;;;;;8.83;4.47;;;11.30;99.90;;;;;;5073620;28;20204;-85
2022/11/10 08:24:19;;;;;;;10.30;4.50;;;11.40;99.90;;;;;;5073665;28;20195;-85
2022/11/10 08:26:46;;;;;;;14.40;5.97;;;11.40;1.00;;;;;;5073208;28;20217;-86
2022/11/10 08:29:13;;;;;;;245.70;80.07;;;11.50;1.00;;;;;;5073164;28;20202;-79
2022/11/10 08:31:40;;;;;;;202.00;70.17;;;11.60;1.00;;;;;;5073104;28;20234;-79
2022/11/10 08:34:08;;;;;;;112.90;39.70;;;11.60;1.00;;;;;;5073623;28;20200;-79
2022/11/10 08:36:36;;;;;;;152.97;65.73;;;11.70;99.90;;;;;;5072949;28;20215;-80
2022/11/10 08:39:04;;;;;;;47.60;20.60;;;11.70;22.80;;;;;;5073195;28;20203;-79
2022/11/10 08:41:31;;;;;;;70.53;30.90;;;11.70;1.00;;;;;;5072995;28;20203;-81
2022/11/10 08:43:58;;;;;;;95.07;43.00;;;11.80;1.00;;;;;;5072806;28;20248;-79
2022/11/10 08:46:25;;;;;;;58.87;23.50;;;11.90;1.00;;;;;;5073081;28;20196;-81
2022/11/10 08:48:52;;;;;;;102.27;42.23;;;11.90;99.90;;;;;;5073007;28;20602;-81
2022/11/10 08:51:21;;;;;;;98.97;37.60;;;11.90;65.60;;;;;;5073070;28;20674;-79
2022/11/10 08:53:48;;;;;;;22.77;10.60;;;12.00;1.00;;;;;;5072964;28;20198;-82
2022/11/10 08:56:15;;;;;;;84.13;35.20;;;12.00;1.00;;;;;;5072797;28;20526;-79
2022/11/10 08:58:42;;;;;;;20.67;8.90;;;12.10;99.90;;;;;;5072893;28;20250;-80
2022/11/10 09:01:10;;;;;;;18.73;7.80;;;12.10;99.90;;;;;;5072826;28;20192;-81
2022/11/10 09:03:37;;;;;;;9.93;5.23;;;12.10;25.60;;;;;;5072699;28;20202;-79
2022/11/10 09:06:04;;;;;;;18.97;9.40;;;12.10;1.00;;;;;;5072844;28;20200;-80
2022/11/10 09:08:33;;;;;;;38.93;18.20;;;12.10;1.00;;;;;;5072764;28;20192;-80
2022/11/10 09:11:03;;;;;;;19.93;6.87;;;12.10;1.00;;;;;;5072729;28;20201;-80
2022/11/10 09:13:30;;;;;;;16.80;7.50;;;12.20;1.00;;;;;;5072450;28;20248;-79
2022/11/10 09:16:00;;;;;;;42.73;19.77;;;12.20;1.00;;;;;;5072705;28;20194;-81
2022/11/10 09:18:27;;;;;;;56.70;27.77;;;12.30;1.00;;;;;;5072583;28;20275;-79
2022/11/10 09:20:54;;;;;;;18.63;8.50;;;12.30;1.00;;;;;;5072277;28;20677;-79
2022/11/10 09:23:23;;;;;;;29.87;14.37;;;12.40;99.90;;;;;;5072717;28;20247;-80
2022/11/10 09:25:53;;;;;;;12.00;5.27;;;12.40;99.90;;;;;;5072605;28;20197;-80
2022/11/10 09:28:21;;;;;;;35.47;14.67;;;12.50;99.90;;;;;;5072268;28;20187;-79
2022/11/10 09:30:50;;;;;;;14.17;5.53;;;12.60;99.90;;;;;;5072168;28;20230;-79
2022/11/10 09:33:17;;;;;;;12.00;3.30;;;12.60;99.90;;;;;;5072443;28;20655;-82
2022/11/10 09:35:44;;;;;;;11.90;5.33;;;12.70;99.90;;;;;;5072268;28;20251;-80
2022/11/10 09:38:12;;;;;;;21.13;12.60;;;12.70;1.00;;;;;;5072778;28;20613;-81
2022/11/10 09:40:51;;;;;;;21.90;9.07;;;12.70;1.00;;;;;;5072429;28;20197;-80
2022/11/10 09:43:27;;;;;;;9.43;3.43;;;12.80;1.00;;;;;;5072153;28;20178;-80
2022/11/10 09:45:57;;;;;;;10.47;3.63;;;12.80;1.00;;;;;;5072503;28;20181;-80
2022/11/10 09:48:28;;;;;;;13.23;5.50;;;12.80;1.00;;;;;;5073575;28;20183;-80
2022/11/10 09:50:59;;;;;;;7.40;3.30;;;12.80;99.90;;;;;;5076225;28;20663;-81
2022/11/10 09:53:32;;;;;;;9.50;4.03;;;12.90;99.90;;;;;;5076660;28;20187;-79
2022/11/10 09:56:03;;;;;;;6.53;3.73;;;12.80;99.90;;;;;;5076115;28;20182;-81
2022/11/10 09:58:35;;;;;;;9.27;3.70;;;12.80;99.90;;;;;;5076264;28;20208;-80
2022/11/10 10:01:13;;;;;;;13.97;5.07;;;12.90;1.00;;;;;;5076403;28;20179;-80
2022/11/10 10:03:46;;;;;;;8.47;4.33;;;13.10;99.90;;;;;;5076480;28;20186;-80
2022/11/10 10:06:15;;;;;;;9.23;3.60;;;13.20;39.70;;;;;;5076580;28;20240;-81
2022/11/10 10:08:55;;;;;;;29.23;16.13;;;13.10;1.00;;;;;;5076244;28;20194;-81
2022/11/10 10:11:43;;;;;;;12.00;5.73;;;12.90;1.00;;;;;;5076276;28;20177;-80
2022/11/10 10:14:24;;;;;;;11.03;5.03;;;12.80;1.00;;;;;;5076132;28;20574;-81
2022/11/10 10:16:59;;;;;;;27.67;5.27;;;12.70;1.00;;;;;;5076000;28;20628;-81
2022/11/10 10:19:35;;;;;;;6.47;3.67;;;12.60;1.00;;;;;;5076068;28;20184;-81
2022/11/10 10:22:23;;;;;;;13.10;6.10;;;12.50;85.70;;;;;;5075983;28;20193;-79
2022/11/10 10:24:53;;;;;;;26.47;4.23;;;12.70;99.90;;;;;;5075866;28;20182;-80
2022/11/10 10:27:22;;;;;;;11.23;4.27;;;12.90;99.90;;;;;;5075483;28;20204;-80
2022/11/10 10:29:51;;;;;;;11.23;3.57;;;13.00;1.00;;;;;;5075655;28;20244;-81
2022/11/10 10:32:20;;;;;;;7.33;3.30;;;13.10;1.00;;;;;;5075446;28;20270;-80
2022/11/10 10:34:47;;;;;;;11.30;3.00;;;13.10;1.00;;;;;;5075876;28;20198;-82
2022/11/10 10:37:25;;;;;;;12.27;3.27;;;13.20;1.00;;;;;;5075493;28;20613;-80
2022/11/10 10:39:54;;;;;;;18.80;3.20;;;13.30;1.00;;;;;;5075674;28;20539;-79
2022/11/10 10:42:30;;;;;;;10.87;2.90;;;13.30;1.00;;;;;;5075470;28;20196;-81
2022/11/10 10:45:15;;;;;;;8.77;2.83;;;13.40;1.00;;;;;;5075585;28;20636;-82
2022/11/10 10:47:43;;;;;;;9.33;2.93;;;13.40;1.00;;;;;;5075186;28;20582;-79
2022/11/10 10:50:32;;;;;;;14.03;5.57;;;13.50;1.00;;;;;;5075321;28;20663;-79
2022/11/10 10:53:16;;;;;;;15.37;3.27;;;13.50;1.00;;;;;;5075360;28;20266;-80
2022/11/10 10:55:49;;;;;;;8.90;3.20;;;13.70;1.00;;;;;;5075242;28;20241;-79
2022/11/10 10:58:24;;;;;;;6.57;2.90;;;13.50;99.90;;;;;;5075428;28;20231;-80
2022/11/10 11:00:55;;;;;;;12.23;3.63;;;13.40;99.90;;;;;;5074206;28;20233;-80
2022/11/10 11:03:28;;;;;;;7.63;2.90;;;13.40;99.90;;;;;;5074789;28;20194;-80
2022/11/10 11:06:06;;;;;;;32.33;5.23;;;13.40;99.90;;;;;;5075173;28;20180;-79
2022/11/10 11:08:33;;;;;;;20.50;4.47;;;13.40;99.90;;;;;;5074664;28;20186;-79
2022/11/10 11:11:09;;;;;;;9.43;3.60;;;13.40;99.90;;;;;;5075095;28;20206;-79
2022/11/10 11:13:37;;;;;;;9.90;3.93;;;13.30;99.90;;;;;;5074735;28;20654;-81
2022/11/10 11:16:08;;;;;;;19.10;3.60;;;13.30;99.90;;;;;;5074596;28;20189;-80
2022/11/10 11:18:39;;;;;;;10.63;2.73;;;13.30;99.90;;;;;;5074482;28;20210;-80
2022/11/10 11:21:19;;;;;;;19.20;3.97;;;13.30;99.90;;;;;;5074959;28;20268;-79
2022/11/10 11:24:07;;;;;;;7.53;3.40;;;13.40;99.90;;;;;;5074668;28;20190;-80
2022/11/10 11:26:44;;;;;;;13.93;3.70;;;13.40;99.90;;;;;;5074513;28;20190;-81
2022/11/10 11:29:26;;;;;;;11.17;6.33;;;13.60;99.90;;;;;;5074425;28;20241;-80
2022/11/10 11:32:12;;;;;;;11.37;3.30;;;13.80;99.90;;;;;;5074264;28;20292;-80
2022/11/10 11:34:48;;;;;;;8.73;2.60;;;13.90;99.90;;;;;;5074549;28;20237;-80
2022/11/10 11:37:25;;;;;;;12.60;3.53;;;14.00;99.10;;;;;;5074322;28;20309;-81
2022/11/10 11:40:02;;;;;;;38.73;8.47;;;14.00;77.20;;;;;;5074374;28;20209;-80
2022/11/10 11:42:46;;;;;;;40.92;7.15;;;14.00;99.90;;;;;;5074423;28;20543;-80
2022/11/10 11:45:20;;;;;;;8.67;2.30;;;14.20;1.00;;;;;;5074401;28;20643;-82
2022/11/10 11:48:05;;;;;;;12.93;2.40;;;14.20;1.00;;;;;;5074303;28;20185;-79
2022/11/10 11:50:40;;;;;;;7.00;2.17;;;14.30;1.00;;;;;;5074301;28;20686;-81
2022/11/10 11:53:18;;;;;;;7.27;2.37;;;14.30;1.00;;;;;;5074195;28;20190;-81
2022/11/10 11:56:01;;;;;;;6.93;2.20;;;14.20;1.00;;;;;;5073789;28;20183;-80
2022/11/10 11:58:39;;;;;;;8.07;2.50;;;14.20;1.00;;;;;;5074025;28;20570;-81
2022/11/10 12:01:19;;;;;;;36.47;5.03;;;14.10;1.00;;;;;;5073811;28;20628;-80
2022/11/10 12:04:25;;;;;;;7.33;2.23;;;14.00;1.00;;;;;;5074118;28;20188;-80
2022/11/10 12:07:07;;;;;;;10.07;2.70;;;13.90;1.00;;;;;;5074303;28;20188;-80
2022/11/10 12:09:43;;;;;;;16.37;2.77;;;13.90;1.00;;;;;;5073838;28;20183;-79
2022/11/10 12:12:42;;;;;;;14.33;5.00;;;13.90;1.00;;;;;;5072477;28;20190;-80
2022/11/10 12:15:24;;;;;;;8.67;3.60;;;13.90;1.00;;;;;;5073435;28;20260;-82
2022/11/10 12:18:03;;;;;;;13.33;3.47;;;14.00;1.00;;;;;;5073755;28;20265;-80
2022/11/10 12:20:44;;;;;;;11.37;2.60;;;14.00;1.00;;;;;;5073692;28;20264;-80
2022/11/10 12:23:22;;;;;;;6.77;2.73;;;14.00;1.00;;;;;;5073675;28;20180;-81
2022/11/10 12:26:01;;;;;;;7.13;3.47;;;14.10;1.00;;;;;;5073539;28;20181;-81
2022/11/10 12:28:34;;;;;;;32.40;6.67;;;14.10;1.00;;;;;;5073208;28;20195;-80
2022/11/10 12:31:09;;;;;;;8.60;2.87;;;14.10;1.00;;;;;;5072965;28;20646;-81
2022/11/10 12:33:41;;;;;;;33.92;8.30;;;14.10;1.00;;;;;;5073134;28;20245;-81
2022/11/10 12:36:15;;;;;;;11.77;2.73;;;14.20;1.00;;;;;;5073374;28;20701;-82
2022/11/10 12:38:48;;;;;;;17.93;8.33;;;14.10;1.00;;;;;;5073183;28;20625;-81
2022/11/10 12:41:18;;;;;;;24.80;12.10;;;14.00;1.00;;;;;;5073283;28;20174;-79
2022/11/10 12:43:58;;;;;;;76.60;15.85;;;13.90;1.00;;;;;;5073262;28;20208;-81
2022/11/10 12:46:25;;;;;;;41.43;17.97;;;13.80;1.00;;;;;;5073389;28;20188;-81
2022/11/10 12:49:00;;;;;;;17.60;4.53;;;13.90;1.00;;;;;;5072758;28;20677;-82
2022/11/10 12:51:35;;;;;;;119.47;45.00;;;13.90;1.00;;;;;;5073311;28;20185;-80
2022/11/10 12:54:02;;;;;;;50.13;16.90;;;14.10;1.00;;;;;;5072662;28;20237;-80
2022/11/10 12:56:36;;;;;;;27.80;6.83;;;14.20;1.00;;;;;;5073029;28;20233;-81
2022/11/10 12:59:33;;;;;;;39.03;12.17;;;14.20;1.00;;;;;;5072536;28;20197;-80
2022/11/10 13:02:03;;;;;;;21.03;10.77;;;14.20;1.00;;;;;;5072636;28;20692;-79
2022/11/10 13:04:31;;;;;;;17.80;6.97;;;14.20;1.00;;;;;;5072588;28;20693;-81
2022/11/10 13:07:02;;;;;;;14.10;3.10;;;14.00;1.00;;;;;;5073066;28;20215;-81
2022/11/10 13:09:32;;;;;;;40.53;5.97;;;13.90;1.00;;;;;;5073062;28;20182;-82
2022/11/10 13:12:17;;;;;;;25.30;3.73;;;13.90;1.00;;;;;;5072765;28;20686;-81
2022/11/10 13:14:45;;;;;;;10.97;5.10;;;13.90;1.00;;;;;;5072427;28;20183;-80
2022/11/10 13:17:46;;;;;;;13.23;3.23;;;13.90;1.00;;;;;;5072692;28;20225;-81
2022/11/10 13:20:47;;;;;;;13.10;2.50;;;13.80;1.00;;;;;;5072698;28;20176;-81